Time;durP1;ratioP1;P1;durP2;ratioP2;P2;SDS_P1;SDS_P2;PMS_P1;PMS_P2;Temp;Humidity;BMP_temperature;BMP_pressure;BME280_temperature;BME280_humidity;BME280_pressure;Samples;Min_cycle;Max_cycle;Signal;HPM_P1;HPM_P2
2023/06/25 00:00:18;;;;;;;9.57;5.95;;;;;;;-142.43;100.00;63430.59;4958040;28;20392;-88
2023/06/25 00:02:46;;;;;;;7.72;5.75;;;;;;;-142.43;100.00;63430.59;4953713;29;20047;-88
2023/06/25 00:05:13;;;;;;;8.55;5.68;;;;;;;-142.43;100.00;63430.59;4958068;29;20500;-88
2023/06/25 00:07:40;;;;;;;8.63;5.53;;;;;;;-142.43;100.00;63430.59;4947713;29;20055;-88
2023/06/25 00:10:08;;;;;;;7.53;5.65;;;;;;;-142.43;100.00;63430.59;4957685;29;20059;-88
2023/06/25 00:12:34;;;;;;;8.02;5.63;;;;;;;-142.43;100.00;63430.59;4955361;29;20043;-87
2023/06/25 00:15:01;;;;;;;11.88;5.80;;;;;;;-142.43;100.00;63430.59;4962012;28;20105;-88
2023/06/25 00:17:28;;;;;;;7.13;5.60;;;;;;;-142.43;100.00;63430.59;4954766;28;20151;-88
2023/06/25 00:19:56;;;;;;;6.28;5.50;;;;;;;-142.43;100.00;63430.59;4955499;29;20414;-88
2023/06/25 00:22:23;;;;;;;7.00;5.38;;;;;;;-142.43;100.00;63430.59;4956992;29;20051;-87
2023/06/25 00:24:50;;;;;;;7.10;5.55;;;;;;;-142.43;100.00;63430.59;4963066;28;20079;-88
2023/06/25 00:27:17;;;;;;;7.32;5.65;;;;;;;-142.43;100.00;63430.59;4959337;29;20130;-88
2023/06/25 00:29:43;;;;;;;6.80;5.30;;;;;;;-142.43;100.00;63430.59;4963232;28;20130;-88
2023/06/25 00:32:10;;;;;;;9.18;6.15;;;;;;;-142.43;100.00;63430.59;4968915;28;20109;-87
2023/06/25 00:34:41;;;;;;;7.18;6.07;;;;;;;-142.43;100.00;63430.59;4964913;28;20129;-88
2023/06/25 00:37:16;;;;;;;10.65;5.85;;;;;;;-142.43;100.00;63430.59;4958908;29;20050;-87
2023/06/25 00:39:43;;;;;;;8.00;5.93;;;;;;;-142.43;100.00;63430.59;4958501;29;20191;-87
2023/06/25 00:42:09;;;;;;;7.28;5.60;;;;;;;-142.43;100.00;63430.59;4959387;29;20071;-87
2023/06/25 00:44:40;;;;;;;8.57;5.88;;;;;;;-142.43;100.00;63430.59;4963465;28;20510;-87
2023/06/25 00:47:12;;;;;;;7.25;5.60;;;;;;;-142.43;100.00;63430.59;4963609;28;20051;-87
2023/06/25 00:49:38;;;;;;;8.82;6.20;;;;;;;-142.43;100.00;63430.59;4964634;28;20058;-87
2023/06/25 00:52:08;;;;;;;7.70;5.40;;;;;;;-142.43;100.00;63430.59;4962388;28;20055;-87
2023/06/25 00:54:38;;;;;;;7.32;5.95;;;;;;;-142.43;100.00;63430.59;4966034;28;20055;-87
2023/06/25 00:57:06;;;;;;;8.75;5.70;;;;;;;-142.43;100.00;63430.59;4957347;29;20043;-88
2023/06/25 00:59:33;;;;;;;8.02;6.03;;;;;;;-142.43;100.00;63430.59;4965765;28;20085;-87
2023/06/25 01:02:07;;;;;;;9.68;6.40;;;;;;;-142.43;100.00;63430.59;4955786;28;20054;-87
2023/06/25 01:04:41;;;;;;;7.85;6.13;;;;;;;-142.43;100.00;63430.59;4966007;28;20082;-87
2023/06/25 01:07:16;;;;;;;10.15;6.45;;;;;;;-142.43;100.00;63430.59;4966160;28;20076;-87
2023/06/25 01:09:48;;;;;;;8.48;6.32;;;;;;;-142.43;100.00;63430.59;4959478;28;20545;-87
2023/06/25 01:12:15;;;;;;;7.83;5.73;;;;;;;-142.43;100.00;63430.59;4955373;28;20480;-87
2023/06/25 01:14:48;;;;;;;7.75;5.93;;;;;;;-142.43;100.00;63430.59;4966659;28;20057;-88
2023/06/25 01:17:15;;;;;;;8.60;6.20;;;;;;;-142.43;100.00;63430.59;4944757;28;20142;-88
2023/06/25 01:19:42;;;;;;;9.55;6.10;;;;;;;-142.43;100.00;63430.59;4964088;28;20119;-87
2023/06/25 01:22:10;;;;;;;8.95;6.35;;;;;;;-142.43;100.00;63430.59;4957307;28;20081;-87
2023/06/25 01:24:38;;;;;;;11.55;6.82;;;;;;;-142.43;100.00;63430.59;4964789;28;20094;-87
2023/06/25 01:27:05;;;;;;;11.45;6.88;;;;;;;-142.43;100.00;63430.59;4957125;29;20055;-87
2023/06/25 01:29:33;;;;;;;9.20;6.50;;;;;;;-142.43;100.00;63430.59;4968280;28;20126;-87
2023/06/25 01:32:00;;;;;;;8.35;6.13;;;;;;;-142.43;100.00;63430.59;4952358;28;20385;-87
2023/06/25 01:34:27;;;;;;;8.55;6.55;;;;;;;-142.43;100.00;63430.59;4967107;28;20090;-87
2023/06/25 01:36:54;;;;;;;9.68;6.72;;;;;;;-142.43;100.00;63430.59;4962609;28;20125;-87
2023/06/25 01:39:22;;;;;;;12.48;6.75;;;;;;;-142.43;100.00;63430.59;4949264;29;20126;-88
2023/06/25 01:41:50;;;;;;;7.95;5.80;;;;;;;-142.43;100.00;63430.59;4949154;29;20051;-87
2023/06/25 01:44:19;;;;;;;8.32;6.13;;;;;;;-142.43;100.00;63430.59;4964702;28;20059;-87
2023/06/25 01:46:46;;;;;;;8.25;6.32;;;;;;;-142.43;100.00;63430.59;4957083;29;20138;-87
2023/06/25 01:49:12;;;;;;;9.82;6.20;;;;;;;-142.43;100.00;63430.59;4965392;28;20129;-87
2023/06/25 01:51:39;;;;;;;9.43;6.43;;;;;;;-142.43;100.00;63430.59;4960179;28;20143;-88
2023/06/25 01:54:06;;;;;;;9.20;6.63;;;;;;;-142.43;100.00;63430.59;4959992;28;20141;-88
2023/06/25 01:56:32;;;;;;;12.98;6.85;;;;;;;-142.43;100.00;63430.59;4959571;28;20107;-87
2023/06/25 01:59:00;;;;;;;9.10;6.65;;;;;;;-142.43;100.00;63430.59;4964974;28;20074;-88
2023/06/25 02:01:27;;;;;;;8.27;6.38;;;;;;;-142.43;100.00;63430.59;4970307;28;20186;-87
2023/06/25 02:03:54;;;;;;;12.38;6.80;;;;;;;-142.43;100.00;63430.59;4975720;28;20510;-88
2023/06/25 02:06:20;;;;;;;12.10;5.93;;;;;;;-142.43;100.00;63430.59;4972709;28;20042;-87
2023/06/25 02:08:47;;;;;;;9.40;6.75;;;;;;;-142.43;100.00;63430.59;4974251;28;20107;-87
2023/06/25 02:11:14;;;;;;;12.95;6.43;;;;;;;-142.43;100.00;63430.59;4964446;29;20094;-87
2023/06/25 02:13:40;;;;;;;9.32;6.80;;;;;;;-142.43;100.00;63430.59;4971507;28;20477;-88
2023/06/25 02:16:08;;;;;;;19.73;7.70;;;;;;;-142.43;100.00;63430.59;4963109;28;20102;-88
2023/06/25 02:18:37;;;;;;;9.73;6.30;;;;;;;-142.43;100.00;63430.59;4959447;28;20258;-87
2023/06/25 02:21:04;;;;;;;7.97;6.63;;;;;;;-142.43;100.00;63430.59;4968529;28;20047;-87
2023/06/25 02:23:30;;;;;;;13.07;7.00;;;;;;;-142.43;100.00;63430.59;4964524;28;20055;-87
2023/06/25 02:25:57;;;;;;;10.65;6.72;;;;;;;-142.43;100.00;63430.59;4964341;28;20490;-87
2023/06/25 02:28:23;;;;;;;10.05;6.95;;;;;;;-142.43;100.00;63430.59;4958694;28;20460;-88
2023/06/25 02:30:50;;;;;;;9.15;7.10;;;;;;;-142.43;100.00;63430.59;4973242;28;20083;-87
2023/06/25 02:33:18;;;;;;;11.45;7.00;;;;;;;-142.43;100.00;63430.59;4973946;28;20061;-87
2023/06/25 02:35:45;;;;;;;10.70;6.72;;;;;;;-142.43;100.00;63430.59;4973515;29;20067;-87
2023/06/25 02:38:11;;;;;;;12.10;7.07;;;;;;;-142.43;100.00;63430.59;4974089;28;20043;-87
2023/06/25 02:40:38;;;;;;;15.85;7.30;;;;;;;-142.43;100.00;63430.59;4974517;28;20032;-87
2023/06/25 02:43:04;;;;;;;11.32;6.97;;;;;;;-142.43;100.00;63430.59;4971081;29;20032;-87
2023/06/25 02:45:31;;;;;;;11.45;6.50;;;;;;;-142.43;100.00;63430.59;4989968;28;20035;-86
2023/06/25 02:47:58;;;;;;;11.63;7.22;;;;;;;-142.43;100.00;63430.59;4990644;28;20035;-86
2023/06/25 02:50:26;;;;;;;11.43;7.15;;;;;;;-142.43;100.00;63430.59;4976332;28;20031;-86
2023/06/25 02:52:52;;;;;;;11.95;7.38;;;;;;;-142.43;100.00;63430.59;4993204;28;20042;-86
2023/06/25 02:55:19;;;;;;;12.40;6.53;;;;;;;-142.43;100.00;63430.59;4982942;28;20150;-87
2023/06/25 02:57:46;;;;;;;10.82;7.20;;;;;;;-142.43;100.00;63430.59;4983549;28;20504;-87
2023/06/25 03:00:13;;;;;;;11.45;6.78;;;;;;;-142.43;100.00;63430.59;4975572;28;20086;-88
2023/06/25 03:02:40;;;;;;;14.77;7.35;;;;;;;-142.43;100.00;63430.59;4964108;29;20422;-87
2023/06/25 03:05:07;;;;;;;11.93;7.05;;;;;;;-142.43;100.00;63430.59;4971388;28;20086;-87
2023/06/25 03:07:35;;;;;;;17.83;7.32;;;;;;;-142.43;100.00;63430.59;4945529;29;20502;-87
2023/06/25 03:10:02;;;;;;;12.23;7.32;;;;;;;-142.43;100.00;63430.59;4951472;29;20086;-87
2023/06/25 03:12:28;;;;;;;14.48;7.45;;;;;;;-142.43;100.00;63430.59;4952484;28;20102;-89
2023/06/25 03:14:55;;;;;;;9.25;6.53;;;;;;;-142.43;100.00;63430.59;4973399;28;20129;-87
2023/06/25 03:17:22;;;;;;;12.10;7.53;;;;;;;-142.43;100.00;63430.59;4952611;28;20061;-87
2023/06/25 03:19:48;;;;;;;9.27;6.50;;;;;;;-142.43;100.00;63430.59;4967651;28;20078;-87
2023/06/25 03:22:15;;;;;;;9.93;7.03;;;;;;;-142.43;100.00;63430.59;4970384;28;20130;-88
2023/06/25 03:24:43;;;;;;;10.43;7.20;;;;;;;-142.43;100.00;63430.59;4964394;28;20078;-87
2023/06/25 03:27:10;;;;;;;9.98;6.80;;;;;;;-142.43;100.00;63430.59;4965834;28;20099;-87
2023/06/25 03:29:36;;;;;;;10.57;6.95;;;;;;;-142.43;100.00;63430.59;4948037;28;20142;-88
2023/06/25 03:32:03;;;;;;;10.55;6.68;;;;;;;-142.43;100.00;63430.59;4958243;28;20131;-87
2023/06/25 03:34:30;;;;;;;11.32;7.03;;;;;;;-142.43;100.00;63430.59;4958702;29;20057;-87
2023/06/25 03:36:57;;;;;;;14.32;7.28;;;;;;;-142.43;100.00;63430.59;4963219;28;20182;-91
2023/06/25 03:39:24;;;;;;;8.80;6.80;;;;;;;-142.43;100.00;63430.59;4962235;29;20079;-91
2023/06/25 03:41:52;;;;;;;16.33;7.20;;;;;;;-142.43;100.00;63430.59;4968632;28;20055;-90
2023/06/25 03:44:19;;;;;;;12.25;6.97;;;;;;;-142.43;100.00;63430.59;4960768;29;20106;-90
2023/06/25 03:46:46;;;;;;;12.15;6.93;;;;;;;-142.43;100.00;63430.59;4961389;29;20071;-90
2023/06/25 03:49:12;;;;;;;10.95;7.40;;;;;;;-142.43;100.00;63430.59;4961231;29;20093;-91
2023/06/25 03:51:39;;;;;;;12.05;8.00;;;;;;;-142.43;100.00;63430.59;4965173;28;20494;-90
2023/06/25 03:54:06;;;;;;;11.18;7.15;;;;;;;-142.43;100.00;63430.59;4972251;28;20050;-90
2023/06/25 03:56:33;;;;;;;13.40;7.13;;;;;;;-142.43;100.00;63430.59;4980076;28;20141;-90
2023/06/25 03:59:01;;;;;;;13.82;7.50;;;;;;;-142.43;100.00;63430.59;4964081;28;20057;-89
2023/06/25 04:01:28;;;;;;;12.20;7.20;;;;;;;-142.43;100.00;63430.59;4960070;29;20067;-89
2023/06/25 04:03:55;;;;;;;13.80;6.88;;;;;;;-142.43;100.00;63430.59;4974058;28;20057;-88
2023/06/25 04:06:22;;;;;;;11.57;7.43;;;;;;;-142.43;100.00;63430.59;4960854;28;20090;-89
2023/06/25 04:08:48;;;;;;;12.30;7.47;;;;;;;-142.43;100.00;63430.59;4965100;28;20051;-89
2023/06/25 04:11:15;;;;;;;11.05;7.53;;;;;;;-142.43;100.00;63430.59;4979977;28;20445;-89
2023/06/25 04:13:42;;;;;;;13.77;6.97;;;;;;;-142.43;100.00;63430.59;4980244;28;20054;-89
2023/06/25 04:16:10;;;;;;;10.80;7.20;;;;;;;-142.43;100.00;63430.59;4972789;28;20051;-89
2023/06/25 04:18:38;;;;;;;14.13;7.75;;;;;;;-142.43;100.00;63430.59;4959723;29;20062;-90
2023/06/25 04:21:05;;;;;;;15.35;7.82;;;;;;;-142.43;100.00;63430.59;4959794;29;20408;-89
2023/06/25 04:23:32;;;;;;;11.35;7.78;;;;;;;-142.43;100.00;63430.59;4962972;28;20039;-89
2023/06/25 04:25:58;;;;;;;16.35;8.25;;;;;;;-142.43;100.00;63430.59;4964376;28;20089;-89
2023/06/25 04:28:25;;;;;;;10.27;7.80;;;;;;;-142.43;100.00;63430.59;4951586;29;20566;-89
2023/06/25 04:30:52;;;;;;;9.90;8.05;;;;;;;-142.43;100.00;63430.59;4966342;28;20047;-90
2023/06/25 04:33:20;;;;;;;11.35;8.20;;;;;;;-142.43;100.00;63430.59;4971134;28;20142;-89
2023/06/25 04:35:47;;;;;;;16.38;9.32;;;;;;;-142.43;100.00;63430.59;4974345;28;20050;-89
2023/06/25 04:38:14;;;;;;;12.43;8.80;;;;;;;-142.43;100.00;63430.59;4955566;28;20055;-90
2023/06/25 04:40:41;;;;;;;12.60;9.73;;;;;;;-142.43;100.00;63430.59;4974618;28;20055;-89
2023/06/25 04:43:08;;;;;;;13.70;9.32;;;;;;;-142.43;100.00;63430.59;4951359;29;20211;-89
2023/06/25 04:45:34;;;;;;;18.42;10.02;;;;;;;-142.43;100.00;63430.59;4966264;28;20057;-89
2023/06/25 04:48:01;;;;;;;14.48;10.13;;;;;;;-142.43;100.00;63430.59;4982502;28;20111;-89
2023/06/25 04:50:29;;;;;;;12.45;9.27;;;;;;;-142.43;100.00;63430.59;4978444;28;20035;-89
2023/06/25 04:52:56;;;;;;;13.57;10.10;;;;;;;-142.43;100.00;63430.59;4992787;28;20038;-90
2023/06/25 04:55:23;;;;;;;17.25;10.50;;;;;;;-142.43;100.00;63430.59;4979683;28;20050;-90
2023/06/25 04:57:51;;;;;;;14.95;10.05;;;;;;;-142.43;100.00;63430.59;4978368;29;20066;-90
2023/06/25 05:00:18;;;;;;;13.52;10.20;;;;;;;-142.43;100.00;63430.59;4995650;28;20045;-90
2023/06/25 05:02:44;;;;;;;12.95;10.50;;;;;;;-142.43;100.00;63430.59;4989417;28;20066;-90
2023/06/25 05:05:11;;;;;;;15.25;9.63;;;;;;;-142.43;100.00;63430.59;4997317;28;20051;-90
2023/06/25 05:07:39;;;;;;;18.40;10.73;;;;;;;-142.43;100.00;63430.59;4992595;28;20414;-89
2023/06/25 05:10:06;;;;;;;16.23;10.98;;;;;;;-142.43;100.00;63430.59;4961312;29;20106;-89
2023/06/25 05:12:33;;;;;;;18.63;11.18;;;;;;;-142.43;100.00;63430.59;4979281;28;20082;-89
2023/06/25 05:15:01;;;;;;;18.20;11.18;;;;;;;-142.43;100.00;63430.59;4979384;28;20109;-89
2023/06/25 05:17:27;;;;;;;16.05;11.57;;;;;;;-142.43;100.00;63430.59;4971700;28;20055;-90
2023/06/25 05:19:54;;;;;;;15.63;10.50;;;;;;;-142.43;100.00;63430.59;4965079;28;20133;-89
2023/06/25 05:22:21;;;;;;;17.50;10.25;;;;;;;-142.43;100.00;63430.59;4966981;28;20055;-90
2023/06/25 05:24:49;;;;;;;15.40;10.50;;;;;;;-142.43;100.00;63430.59;4971555;28;20071;-91
2023/06/25 05:27:15;;;;;;;15.85;10.25;;;;;;;-142.43;100.00;63430.59;4961394;28;20091;-90
2023/06/25 05:29:42;;;;;;;14.48;10.30;;;;;;;-142.43;100.00;63430.59;4958597;29;20474;-90
2023/06/25 05:32:09;;;;;;;12.23;10.55;;;;;;;-142.43;100.00;63430.59;4958676;29;20462;-89
2023/06/25 05:34:36;;;;;;;15.63;10.45;;;;;;;-142.43;100.00;63430.59;4958971;29;20051;-89
2023/06/25 05:37:02;;;;;;;13.35;9.98;;;;;;;-142.43;100.00;63430.59;4965456;28;20085;-89
2023/06/25 05:39:29;;;;;;;12.13;10.02;;;;;;;-142.43;100.00;63430.59;4967309;28;21466;-88
2023/06/25 05:41:58;;;;;;;14.40;9.70;;;;;;;-142.43;100.00;63430.59;4972618;28;20110;-89
2023/06/25 05:44:25;;;;;;;14.13;10.50;;;;;;;-142.43;100.00;63430.59;4951177;29;20054;-89
2023/06/25 05:46:53;;;;;;;11.75;10.55;;;;;;;-142.43;100.00;63430.59;4964402;28;20058;-89
2023/06/25 05:49:20;;;;;;;14.52;10.48;;;;;;;-142.43;100.00;63430.59;4960068;28;20055;-89
2023/06/25 05:51:47;;;;;;;14.52;9.88;;;;;;;-142.43;100.00;63430.59;4971457;28;20047;-88
2023/06/25 05:54:14;;;;;;;14.80;10.20;;;;;;;-142.43;100.00;63430.59;4977537;28;20046;-88
2023/06/25 05:56:40;;;;;;;12.45;11.13;;;;;;;-142.43;100.00;63430.59;4965226;28;20102;-91
2023/06/25 05:59:09;;;;;;;11.55;9.77;;;;;;;-142.43;100.00;63430.59;4960162;29;20194;-88
2023/06/25 06:01:38;;;;;;;12.27;9.85;;;;;;;-142.43;100.00;63430.59;4961100;29;20470;-89
2023/06/25 06:04:05;;;;;;;19.27;11.43;;;;;;;-142.43;100.00;63430.59;4968171;28;20082;-88
2023/06/25 06:06:32;;;;;;;12.35;9.75;;;;;;;-142.43;100.00;63430.59;4961401;29;20047;-90
2023/06/25 06:09:03;;;;;;;13.35;10.07;;;;;;;-142.43;100.00;63430.59;4945792;29;20055;-90
2023/06/25 06:11:29;;;;;;;13.13;9.32;;;;;;;-142.43;100.00;63430.59;4958827;29;20070;-90
2023/06/25 06:13:56;;;;;;;11.32;9.77;;;;;;;-142.43;100.00;63430.59;4958429;29;20067;-89
2023/06/25 06:16:24;;;;;;;17.00;10.18;;;;;;;-142.43;100.00;63430.59;4956130;29;20048;-90
2023/06/25 06:18:51;;;;;;;11.65;9.05;;;;;;;-142.43;100.00;63430.59;4952945;29;20082;-90
2023/06/25 06:21:18;;;;;;;10.77;9.52;;;;;;;-142.43;100.00;63430.59;4959465;28;20383;-90
2023/06/25 06:23:44;;;;;;;10.90;9.02;;;;;;;-142.43;100.00;63430.59;4964997;28;20055;-90
2023/06/25 06:26:11;;;;;;;12.20;9.30;;;;;;;-142.43;100.00;63430.59;4958855;29;20055;-90
2023/06/25 06:28:38;;;;;;;10.55;8.80;;;;;;;-142.43;100.00;63430.59;4958262;29;20119;-90
2023/06/25 06:31:05;;;;;;;10.07;8.88;;;;;;;-142.43;100.00;63430.59;4965452;28;20102;-90
2023/06/25 06:33:34;;;;;;;14.23;9.70;;;;;;;-142.43;100.00;63430.59;4958717;28;20051;-90
2023/06/25 06:36:02;;;;;;;11.20;9.05;;;;;;;-142.43;100.00;63430.59;4963930;28;20055;-90
2023/06/25 06:38:28;;;;;;;10.43;8.75;;;;;;;-142.43;100.00;63430.59;4965800;28;20054;-90
2023/06/25 06:40:55;;;;;;;9.90;8.80;;;;;;;-142.43;100.00;63430.59;4959608;28;20051;-89
2023/06/25 06:43:22;;;;;;;12.00;9.00;;;;;;;-142.43;100.00;63430.59;4962863;28;20043;-90
2023/06/25 06:45:48;;;;;;;13.68;8.98;;;;;;;-142.43;100.00;63430.59;4943868;29;20130;-89
2023/06/25 06:48:15;;;;;;;10.40;8.90;;;;;;;-142.43;100.00;63430.59;4960833;28;20047;-90
2023/06/25 06:50:43;;;;;;;12.50;9.77;;;;;;;-142.43;100.00;63430.59;4968577;28;20102;-89
2023/06/25 06:53:10;;;;;;;10.07;9.00;;;;;;;-142.43;100.00;63430.59;4952950;29;20088;-89
2023/06/25 06:55:37;;;;;;;10.73;9.63;;;;;;;-142.43;100.00;63430.59;4945337;29;20051;-90
2023/06/25 06:58:03;;;;;;;13.73;9.40;;;;;;;-142.43;100.00;63430.59;4968670;28;20079;-89
2023/06/25 07:00:31;;;;;;;13.23;8.45;;;;;;;-142.43;100.00;63430.59;4969751;28;20055;-92
2023/06/25 07:02:59;;;;;;;10.23;9.10;;;;;;;-142.43;100.00;63430.59;4980870;28;20118;-93
2023/06/25 07:05:25;;;;;;;10.93;9.40;;;;;;;-142.43;100.00;63430.59;4979683;28;20054;-92
2023/06/25 07:07:55;;;;;;;11.00;9.05;;;;;;;-142.43;100.00;63430.59;4970091;29;20052;-93
2023/06/25 07:10:22;;;;;;;10.63;8.63;;;;;;;-142.43;100.00;63430.59;4969296;29;20055;-92
2023/06/25 07:12:52;;;;;;;9.73;8.82;;;;;;;-142.43;100.00;63430.59;4964977;28;20055;-93
2023/06/25 07:15:18;;;;;;;10.63;8.98;;;;;;;-142.43;100.00;63430.59;4967311;28;20059;-93
2023/06/25 07:17:45;;;;;;;9.95;8.95;;;;;;;-142.43;100.00;63430.59;4984009;28;20939;-91
2023/06/25 07:20:13;;;;;;;14.48;9.05;;;;;;;-142.43;100.00;63430.59;4977845;28;20035;-91
2023/06/25 07:22:43;;;;;;;11.82;8.55;;;;;;;-142.43;100.00;63430.59;4959876;28;20046;-93
2023/06/25 07:25:12;;;;;;;9.07;8.18;;;;;;;-142.43;100.00;63430.59;4965830;28;20063;-93
2023/06/25 07:27:40;;;;;;;10.68;8.57;;;;;;;-142.43;100.00;63430.59;4992437;28;20047;-93
2023/06/25 07:30:08;;;;;;;9.38;8.48;;;;;;;-142.43;100.00;63430.59;4993559;28;20077;-93
2023/06/25 07:32:35;;;;;;;10.65;8.98;;;;;;;-142.43;100.00;63430.59;4958995;28;20080;-92
2023/06/25 07:35:03;;;;;;;9.55;8.55;;;;;;;-142.43;100.00;63430.59;4983774;28;20077;-92
2023/06/25 07:37:33;;;;;;;12.02;8.32;;;;;;;-142.43;100.00;63430.59;4979680;28;20039;-92
2023/06/25 07:39:59;;;;;;;11.50;8.75;;;;;;;-142.43;100.00;63430.59;4955913;28;20055;-91
2023/06/25 07:42:28;;;;;;;9.18;8.25;;;;;;;-142.43;100.00;63430.59;4954182;29;20047;-92
2023/06/25 07:45:04;;;;;;;9.93;8.13;;;;;;;-142.43;100.00;63430.59;4957617;28;20055;-91
2023/06/25 07:47:31;;;;;;;12.73;8.73;;;;;;;-142.43;100.00;63430.59;4968009;28;20147;-92
2023/06/25 07:49:58;;;;;;;10.68;9.02;;;;;;;-142.43;100.00;63430.59;4968765;28;20123;-92
2023/06/25 07:52:25;;;;;;;9.57;8.35;;;;;;;-142.43;100.00;63430.59;4973483;28;20051;-92
2023/06/25 07:54:51;;;;;;;9.45;8.10;;;;;;;-142.43;100.00;63430.59;4967969;28;20052;-92
2023/06/25 07:57:18;;;;;;;9.10;8.02;;;;;;;-142.43;100.00;63430.59;4968653;28;20115;-92
2023/06/25 07:59:46;;;;;;;8.75;7.75;;;;;;;-142.43;100.00;63430.59;4970167;28;20056;-91
2023/06/25 08:02:14;;;;;;;12.90;8.07;;;;;;;-142.43;100.00;63430.59;4957991;29;20050;-92
2023/06/25 08:04:40;;;;;;;9.00;8.10;;;;;;;-142.43;100.00;63430.59;4964340;29;20051;-93
2023/06/25 08:07:07;;;;;;;8.82;7.93;;;;;;;-142.43;100.00;63430.59;4963659;29;20082;-91
2023/06/25 08:09:34;;;;;;;8.60;7.72;;;;;;;-142.43;100.00;63430.59;4971923;28;20047;-92
2023/06/25 08:12:01;;;;;;;10.70;7.95;;;;;;;-142.43;100.00;63430.59;4964423;29;20047;-93
2023/06/25 08:14:27;;;;;;;9.77;8.38;;;;;;;-142.43;100.00;63430.59;4964725;29;20079;-93
2023/06/25 08:16:56;;;;;;;8.93;7.97;;;;;;;-142.43;100.00;63430.59;4964325;29;20083;-94
2023/06/25 08:19:22;;;;;;;9.18;8.07;;;;;;;-142.43;100.00;63430.59;4966139;29;20091;-93
2023/06/25 08:21:49;;;;;;;8.38;7.55;;;;;;;-142.43;100.00;63430.59;4963946;29;20415;-93
2023/06/25 08:24:16;;;;;;;8.90;7.97;;;;;;;-142.43;100.00;63430.59;4966286;28;20467;-91
2023/06/25 08:26:46;;;;;;;8.23;7.38;;;;;;;-142.43;100.00;63430.59;4967483;28;20035;-93
2023/06/25 08:38:04;;;;;;;8.57;7.78;;;;;;;-142.43;100.00;63430.59;4938471;29;20047;-78
2023/06/25 08:51:11;;;;;;;16.67;14.82;;;;;;;-142.43;100.00;63430.59;4945936;28;20161;-82
2023/06/25 09:00:47;;;;;;;8.65;7.68;;;;;;;-142.43;100.00;63430.59;4943711;29;20059;-84
2023/06/25 09:13:59;;;;;;;8.73;7.82;;;;;;;-142.43;100.00;63430.59;4945687;29;20055;-82
2023/06/25 10:09:56;;;;;;;7.85;6.68;;;;;;;-142.43;100.00;63430.59;4747282;30;20052;-79
2023/06/25 10:26:00;;;;;;;7.73;6.93;;;;;;;-142.43;100.00;63430.59;4956684;23;20125;-79
2023/06/25 10:28:34;;;;;;;11.02;7.22;;;;;;;-142.43;100.00;63430.59;4970172;29;20034;-83
2023/06/25 10:31:11;;;;;;;8.80;7.15;;;;;;;-142.43;100.00;63430.59;4964182;29;20074;-81
2023/06/25 10:33:39;;;;;;;7.47;6.75;;;;;;;-142.43;100.00;63430.59;4961993;29;20063;-80
2023/06/25 10:36:08;;;;;;;7.47;6.70;;;;;;;-142.43;100.00;63430.59;4967835;29;20127;-82
2023/06/25 10:38:35;;;;;;;10.73;6.78;;;;;;;-142.43;100.00;63430.59;4959607;29;20075;-82
2023/06/25 10:41:04;;;;;;;7.18;6.47;;;;;;;-142.43;100.00;63430.59;4961085;29;20067;-81
2023/06/25 10:43:32;;;;;;;8.63;6.75;;;;;;;-142.43;100.00;63430.59;4963663;29;20090;-83
2023/06/25 10:45:59;;;;;;;7.88;7.00;;;;;;;-142.43;100.00;63430.59;4965494;29;20076;-82
2023/06/25 10:48:26;;;;;;;8.80;6.63;;;;;;;-142.43;100.00;63430.59;4964386;29;20445;-83
2023/06/25 10:50:53;;;;;;;7.32;6.57;;;;;;;-142.43;100.00;63430.59;4965416;29;20474;-83
2023/06/25 10:53:21;;;;;;;10.07;6.72;;;;;;;-142.43;100.00;63430.59;4964878;29;20056;-83
2023/06/25 10:55:49;;;;;;;7.20;6.50;;;;;;;-142.43;100.00;63430.59;4964111;29;20071;-83
2023/06/25 10:58:17;;;;;;;7.47;6.68;;;;;;;-142.43;100.00;63430.59;4961475;29;20069;-83
2023/06/25 11:00:46;;;;;;;7.10;6.38;;;;;;;-142.43;100.00;63430.59;4965713;29;20048;-81
2023/06/25 11:03:13;;;;;;;7.68;6.28;;;;;;;-142.43;100.00;63430.59;4968291;29;20075;-78
2023/06/25 11:05:42;;;;;;;7.20;6.50;;;;;;;-142.43;100.00;63430.59;4966288;29;20051;-79
2023/06/25 11:08:13;;;;;;;7.63;6.60;;;;;;;-142.43;100.00;63430.59;4964123;29;20052;-80
2023/06/25 11:10:41;;;;;;;8.40;6.57;;;;;;;-142.43;100.00;63430.59;4961749;29;20039;-81
2023/06/25 11:13:09;;;;;;;8.13;6.78;;;;;;;-142.43;100.00;63430.59;4968072;29;20067;-82
2023/06/25 11:15:36;;;;;;;7.15;6.45;;;;;;;-142.43;100.00;63430.59;4967433;29;20561;-81
2023/06/25 11:18:04;;;;;;;8.40;6.70;;;;;;;-142.43;100.00;63430.59;4967073;29;20058;-83
2023/06/25 11:20:32;;;;;;;8.13;6.30;;;;;;;-142.43;100.00;63430.59;4959324;29;20051;-82
2023/06/25 11:23:10;;;;;;;7.43;6.63;;;;;;;-142.43;100.00;63430.59;4962470;29;20055;-81
2023/06/25 11:25:41;;;;;;;8.30;6.70;;;;;;;-142.43;100.00;63430.59;4962527;29;20070;-81
2023/06/25 11:28:11;;;;;;;8.90;6.43;;;;;;;-142.43;100.00;63430.59;4961852;28;20115;-82
2023/06/25 11:30:44;;;;;;;7.80;7.00;;;;;;;-142.43;100.00;63430.59;4961463;29;20093;-82
2023/06/25 11:33:17;;;;;;;8.20;7.05;;;;;;;-142.43;100.00;63430.59;4959168;28;20056;-82
2023/06/25 11:35:50;;;;;;;10.50;7.00;;;;;;;-142.43;100.00;63430.59;4961847;29;20054;-83
2023/06/25 11:38:26;;;;;;;7.35;6.60;;;;;;;-142.43;100.00;63430.59;4954031;29;20062;-82
2023/06/25 11:40:56;;;;;;;8.18;7.38;;;;;;;-142.43;100.00;63430.59;4959048;29;20055;-80
2023/06/25 11:43:23;;;;;;;11.70;6.55;;;;;;;-142.43;100.00;63430.59;4960376;29;20049;-79
2023/06/25 11:45:53;;;;;;;9.05;6.95;;;;;;;-142.43;100.00;63430.59;4958744;29;20135;-83
2023/06/25 11:48:21;;;;;;;8.82;6.82;;;;;;;-142.43;100.00;63430.59;4956176;29;20510;-82
2023/06/25 11:50:52;;;;;;;9.57;6.40;;;;;;;-142.43;100.00;63430.59;4952416;29;20071;-81
2023/06/25 11:53:18;;;;;;;7.50;6.70;;;;;;;-142.43;100.00;63430.59;4954426;29;20055;-81
2023/06/25 11:55:46;;;;;;;7.65;6.72;;;;;;;-142.43;100.00;63430.59;4958587;29;20146;-81
2023/06/25 11:58:13;;;;;;;7.90;6.93;;;;;;;-142.43;100.00;63430.59;4949854;29;20127;-82
2023/06/25 12:00:39;;;;;;;6.85;6.00;;;;;;;-142.43;100.00;63430.59;4956418;29;20154;-80
2023/06/25 12:03:06;;;;;;;8.52;7.43;;;;;;;-142.43;100.00;63430.59;4959042;29;20498;-81
2023/06/25 12:05:34;;;;;;;7.50;6.53;;;;;;;-142.43;100.00;63430.59;4950730;29;20138;-83
2023/06/25 12:08:00;;;;;;;8.23;6.95;;;;;;;-142.43;100.00;63430.59;4953796;29;20047;-82
2023/06/25 12:10:27;;;;;;;7.70;6.90;;;;;;;-142.43;100.00;63430.59;4956022;29;20048;-81
2023/06/25 12:12:54;;;;;;;7.45;6.65;;;;;;;-142.43;100.00;63430.59;4961170;29;20047;-82
2023/06/25 12:15:21;;;;;;;6.72;6.13;;;;;;;-142.43;100.00;63430.59;4959270;29;20059;-82
2023/06/25 12:17:48;;;;;;;10.88;6.85;;;;;;;-142.43;100.00;63430.59;4958656;29;20051;-82
2023/06/25 12:20:15;;;;;;;7.03;6.32;;;;;;;-142.43;100.00;63430.59;4958970;29;20130;-84
2023/06/25 12:22:43;;;;;;;7.97;6.80;;;;;;;-142.43;100.00;63430.59;4956082;29;20546;-84
2023/06/25 12:25:09;;;;;;;8.25;6.88;;;;;;;-142.43;100.00;63430.59;4963139;29;20086;-83
2023/06/25 12:27:40;;;;;;;7.78;6.57;;;;;;;-142.43;100.00;63430.59;4956019;29;20107;-84
2023/06/25 12:30:07;;;;;;;7.82;7.03;;;;;;;-142.43;100.00;63430.59;4963701;29;20071;-84
2023/06/25 12:32:34;;;;;;;9.20;7.45;;;;;;;-142.43;100.00;63430.59;4956993;29;20506;-83
2023/06/25 12:35:01;;;;;;;9.30;6.95;;;;;;;-142.43;100.00;63430.59;4954052;29;20458;-84
2023/06/25 12:37:27;;;;;;;7.38;6.60;;;;;;;-142.43;100.00;63430.59;4957072;29;20089;-81
2023/06/25 12:39:55;;;;;;;7.35;6.65;;;;;;;-142.43;100.00;63430.59;4951605;29;20135;-81
2023/06/25 12:42:22;;;;;;;7.60;6.90;;;;;;;-142.43;100.00;63430.59;4950380;29;20062;-82
2023/06/25 12:44:49;;;;;;;8.32;6.85;;;;;;;-142.43;100.00;63430.59;4958240;28;20114;-82
2023/06/25 12:47:17;;;;;;;8.80;6.53;;;;;;;-142.43;100.00;63430.59;4955437;29;20108;-82
2023/06/25 12:49:44;;;;;;;6.93;6.20;;;;;;;-142.43;100.00;63430.59;4951647;29;20083;-81